createdAt,value
2023-05-04T00:00:35.617Z,68.18
2023-05-04T00:03:02.245Z,67.90
2023-05-04T00:05:28.917Z,67.63
2023-05-04T00:07:55.471Z,67.46
2023-05-04T00:10:22.146Z,67.13
2023-05-04T00:12:48.769Z,66.77
2023-05-04T00:15:15.594Z,66.91
2023-05-04T00:17:42.178Z,66.94
2023-05-04T00:20:09.267Z,66.78
2023-05-04T00:22:44.958Z,66.60
2023-05-04T00:25:33.343Z,66.30
2023-05-04T00:27:59.929Z,66.21
2023-05-04T00:30:26.522Z,66.33
2023-05-04T00:32:53.118Z,65.96
2023-05-04T00:35:19.678Z,65.65
2023-05-04T00:37:46.493Z,65.57
2023-05-04T00:40:13.266Z,65.45
2023-05-04T00:42:39.795Z,65.45
2023-05-04T00:45:06.811Z,65.34
2023-05-04T00:47:33.745Z,65.10
2023-05-04T00:50:00.549Z,64.93
2023-05-04T00:52:27.866Z,64.60
2023-05-04T00:54:54.737Z,64.48
2023-05-04T00:57:21.740Z,64.85
2023-05-04T00:59:48.307Z,65.18
2023-05-04T01:02:27.958Z,65.37
2023-05-04T01:05:20.156Z,65.26
2023-05-04T01:25:44.953Z,64.18
2023-05-04T01:28:35.837Z,63.83
2023-05-04T01:31:03.541Z,63.89
2023-05-04T01:33:31.699Z,63.65
2023-05-04T01:41:30.172Z,64.23
2023-05-04T01:43:57.826Z,64.09
2023-05-04T01:46:24.414Z,63.97
2023-05-04T01:48:51.039Z,63.99
2023-05-04T01:51:17.626Z,63.86
2023-05-04T01:53:44.188Z,64.02
2023-05-04T01:56:10.969Z,63.95
2023-05-04T01:58:37.548Z,63.88
2023-05-04T02:01:05.665Z,63.68
2023-05-04T02:03:32.407Z,63.71
2023-05-04T02:05:59.005Z,63.75
2023-05-04T02:08:26.387Z,63.52
2023-05-04T02:10:59.070Z,63.41
2023-05-04T02:13:53.552Z,63.45
2023-05-04T02:16:20.119Z,63.54
2023-05-04T02:18:46.828Z,63.54
2023-05-04T02:21:13.738Z,63.41
2023-05-04T02:23:40.309Z,63.59
2023-05-04T02:26:06.975Z,64.95
2023-05-04T02:28:33.562Z,65.61
2023-05-04T02:31:00.124Z,65.75
2023-05-04T02:33:26.709Z,66.03
2023-05-04T02:35:53.220Z,65.90
2023-05-04T02:38:19.802Z,66.02
2023-05-04T02:40:55.774Z,65.63
2023-05-04T02:43:37.683Z,65.29
2023-05-04T02:46:04.618Z,64.98
2023-05-04T02:48:31.194Z,65.46
2023-05-04T02:50:57.921Z,66.13
2023-05-04T02:53:24.460Z,66.49
2023-05-04T02:55:51.056Z,66.73
2023-05-04T02:58:17.600Z,66.32
2023-05-04T03:00:55.640Z,66.03
2023-05-04T03:03:22.236Z,66.37
2023-05-04T03:05:48.800Z,66.25
2023-05-04T03:08:15.802Z,66.09
2023-05-04T03:10:54.698Z,66.33
2023-05-04T03:13:33.228Z,66.84
2023-05-04T03:15:59.897Z,66.94
2023-05-04T03:18:26.520Z,67.08
2023-05-04T03:20:53.163Z,67.31
2023-05-04T03:23:19.744Z,67.17
2023-05-04T03:25:46.264Z,67.47
2023-05-04T03:28:12.960Z,67.50
2023-05-04T03:30:39.547Z,67.30
2023-05-04T03:33:06.215Z,66.74
2023-05-04T03:35:32.905Z,66.17
2023-05-04T03:37:59.936Z,65.55
2023-05-04T03:40:27.102Z,65.30
2023-05-04T03:43:08.959Z,65.41
2023-05-04T03:48:10.985Z,65.04
2023-05-04T03:50:37.542Z,65.03
2023-05-04T03:53:05.759Z,64.89
2023-05-04T03:55:32.347Z,64.73
2023-05-04T03:57:58.953Z,64.58
2023-05-04T04:00:25.510Z,64.45
2023-05-04T04:02:52.147Z,64.17
2023-05-04T04:05:18.810Z,64.18
2023-05-04T04:07:45.589Z,64.22
2023-05-04T04:10:32.126Z,64.36
2023-05-04T04:13:04.167Z,64.56
2023-05-04T04:41:12.323Z,64.54
2023-05-04T04:43:39.132Z,64.69
2023-05-04T04:46:49.444Z,65.07
2023-05-04T04:49:17.869Z,65.55
2023-05-04T04:51:44.669Z,65.67
2023-05-04T04:54:11.532Z,65.62
2023-05-04T04:56:40.617Z,65.73
2023-05-04T04:59:07.412Z,64.74
2023-05-04T05:01:34.092Z,64.71
2023-05-04T05:04:00.775Z,63.84
2023-05-04T05:06:27.287Z,63.23
2023-05-04T05:08:53.865Z,62.83
2023-05-04T05:11:20.992Z,62.47
2023-05-04T05:13:47.510Z,62.00
2023-05-04T05:16:14.186Z,61.27
2023-05-04T05:18:41.122Z,60.90
2023-05-04T05:21:07.775Z,59.99
2023-05-04T05:23:35.638Z,59.00
2023-05-04T05:26:03.376Z,58.38
2023-05-04T05:28:30.416Z,58.10
2023-05-04T05:30:57.036Z,57.75
2023-05-04T05:33:23.900Z,57.00
2023-05-04T05:35:50.475Z,56.56
2023-05-04T05:38:18.729Z,55.76
2023-05-04T05:40:45.310Z,54.96
2023-05-04T05:43:11.823Z,54.97
2023-05-04T05:45:38.366Z,54.70
2023-05-04T05:48:05.700Z,54.58
2023-05-04T05:50:32.341Z,53.63
2023-05-04T05:52:58.879Z,53.97
2023-05-04T05:55:25.437Z,53.50
2023-05-04T05:57:52.173Z,53.12
2023-05-04T06:00:18.932Z,53.36
2023-05-04T06:02:45.591Z,52.79
2023-05-04T06:05:18.266Z,52.81
2023-05-04T06:07:44.808Z,51.83
2023-05-04T06:10:11.365Z,51.51
2023-05-04T06:12:37.935Z,51.74
2023-05-04T06:15:14.482Z,51.66
2023-05-04T06:20:45.260Z,51.33
2023-05-04T06:23:11.985Z,51.08
2023-05-04T06:25:38.579Z,50.59
2023-05-04T06:28:05.482Z,50.79
2023-05-04T06:30:32.087Z,49.67
2023-05-04T06:32:58.693Z,49.64
2023-05-04T06:35:25.791Z,49.84
2023-05-04T06:37:52.404Z,48.85
2023-05-04T06:40:19.029Z,48.65
2023-05-04T06:42:45.934Z,49.18
2023-05-04T06:45:12.708Z,49.59
2023-05-04T06:47:39.322Z,48.47
2023-05-04T06:50:10.059Z,48.47
2023-05-04T06:52:41.110Z,49.98
2023-05-04T06:55:16.943Z,47.53
2023-05-04T06:57:43.556Z,45.88
2023-05-04T07:00:10.718Z,46.43
2023-05-04T07:02:37.329Z,45.94
2023-05-04T07:05:04.114Z,46.15
2023-05-04T07:07:30.773Z,45.82
2023-05-04T07:09:57.519Z,45.20
2023-05-04T07:12:24.123Z,45.47
2023-05-04T07:14:50.713Z,45.15
2023-05-04T07:17:17.305Z,44.86
2023-05-04T07:19:43.885Z,44.72
2023-05-04T07:22:10.499Z,44.42
2023-05-04T07:24:37.152Z,44.81
2023-05-04T07:27:03.807Z,44.49
2023-05-04T07:29:30.670Z,44.99
2023-05-04T07:31:57.279Z,45.00
2023-05-04T07:34:33.889Z,44.60
2023-05-04T07:37:05.433Z,45.17
2023-05-04T07:39:36.266Z,44.78
2023-05-04T07:42:04.147Z,44.96
2023-05-04T07:44:31.817Z,43.99
2023-05-04T07:46:59.131Z,44.78
2023-05-04T07:49:26.197Z,44.46
2023-05-04T07:51:52.970Z,44.54
2023-05-04T07:54:21.330Z,44.58
2023-05-04T07:56:49.108Z,44.33
2023-05-04T07:59:18.396Z,43.25
2023-05-04T08:01:45.176Z,44.01
2023-05-04T08:04:33.481Z,43.72
2023-05-04T08:07:00.124Z,44.33
2023-05-04T08:09:26.739Z,43.74
2023-05-04T08:11:53.664Z,43.71
2023-05-04T08:20:53.063Z,44.30
2023-05-04T08:23:19.641Z,43.85
2023-05-04T08:25:46.192Z,43.07
2023-05-04T08:28:12.753Z,44.05
2023-05-04T08:30:39.314Z,43.59
2023-05-04T08:33:17.592Z,43.38
2023-05-04T08:35:44.135Z,43.11
2023-05-04T08:38:10.894Z,42.82
2023-05-04T08:40:41.548Z,42.22
2023-05-04T08:43:17.229Z,42.31
2023-05-04T08:46:12.464Z,41.50
2023-05-04T08:51:14.832Z,41.28
2023-05-04T08:53:46.063Z,40.99
2023-05-04T08:56:14.027Z,41.14
2023-05-04T08:58:52.054Z,41.65
2023-05-04T09:01:20.230Z,40.53
2023-05-04T09:03:47.750Z,40.76
2023-05-04T09:06:15.293Z,40.76
2023-05-04T09:08:42.441Z,39.12
2023-05-04T09:11:09.373Z,38.86
2023-05-04T09:13:36.613Z,38.74
2023-05-04T09:16:04.239Z,40.30
2023-05-04T09:18:41.427Z,39.75
2023-05-04T09:21:08.193Z,40.14
2023-05-04T09:23:55.311Z,38.23
2023-05-04T09:26:32.293Z,38.82
2023-05-04T09:29:15.521Z,38.13
2023-05-04T09:31:47.291Z,40.37
2023-05-04T09:34:14.997Z,38.27
2023-05-04T09:36:44.903Z,39.94
2023-05-04T09:39:15.973Z,38.83
2023-05-04T09:41:42.757Z,38.60
2023-05-04T09:44:23.139Z,38.18
2023-05-04T09:46:55.457Z,38.74
2023-05-04T09:49:36.135Z,39.67
2023-05-04T09:52:05.212Z,39.58
2023-05-04T09:54:35.388Z,38.87
2023-05-04T09:57:15.542Z,38.16
2023-05-04T09:59:43.158Z,37.20
2023-05-04T10:02:22.115Z,36.86
2023-05-04T10:05:10.546Z,39.48
2023-05-04T10:07:49.861Z,39.12
2023-05-04T10:10:16.610Z,39.21
2023-05-04T10:12:44.876Z,40.38
2023-05-04T10:15:12.290Z,38.62
2023-05-04T10:17:51.290Z,37.41
2023-05-04T10:20:49.002Z,38.47
2023-05-04T10:23:42.269Z,38.15
2023-05-04T10:26:24.163Z,37.74
2023-05-04T10:29:00.917Z,38.10
2023-05-04T10:31:43.456Z,38.04
2023-05-04T10:34:11.200Z,38.07
2023-05-04T10:36:44.109Z,39.09
2023-05-04T10:39:33.173Z,38.17
2023-05-04T10:44:57.053Z,37.91
2023-05-04T10:47:34.332Z,38.81
2023-05-04T10:50:05.598Z,36.89
2023-05-04T10:52:33.250Z,36.83
2023-05-04T10:55:01.883Z,37.08
2023-05-04T10:57:29.373Z,38.03
2023-05-04T10:59:57.844Z,38.11
2023-05-04T11:02:26.074Z,38.75
2023-05-04T11:05:09.489Z,40.49
2023-05-04T11:07:40.085Z,39.88
2023-05-04T11:10:09.788Z,39.76
2023-05-04T11:12:38.164Z,40.54
2023-05-04T11:15:10.944Z,40.95
2023-05-04T11:17:47.509Z,40.56
2023-05-04T11:20:27.293Z,41.17
2023-05-04T11:22:54.921Z,40.72
2023-05-04T11:25:28.777Z,41.19
2023-05-04T11:27:56.121Z,39.63
2023-05-04T11:30:30.705Z,40.13
2023-05-04T11:32:59.302Z,40.32
2023-05-04T11:35:26.342Z,39.49
2023-05-04T11:37:53.688Z,39.04
2023-05-04T11:40:23.651Z,41.09
2023-05-04T11:43:04.568Z,40.58
2023-05-04T11:45:44.380Z,40.95
2023-05-04T11:48:16.637Z,40.65
2023-05-04T11:50:47.799Z,39.44
2023-05-04T11:53:14.384Z,38.77
2023-05-04T11:55:42.031Z,39.41
2023-05-04T11:58:10.631Z,39.68
2023-05-04T12:00:45.383Z,40.11
2023-05-04T12:03:14.394Z,39.79
2023-05-04T12:05:48.523Z,39.24
2023-05-04T12:08:35.232Z,41.31
2023-05-04T12:11:20.402Z,40.02
2023-05-04T12:13:49.237Z,40.05
2023-05-04T12:16:17.006Z,39.41
2023-05-04T12:18:45.417Z,40.59
2023-05-04T12:21:17.707Z,39.05
2023-05-04T12:23:45.629Z,39.59
2023-05-04T12:26:13.132Z,41.41
2023-05-04T12:28:41.983Z,41.40
2023-05-04T12:31:14.881Z,42.23
2023-05-04T12:33:41.861Z,42.63
2023-05-04T12:36:08.735Z,43.22
2023-05-04T12:38:35.250Z,44.13
2023-05-04T12:41:06.171Z,43.79
2023-05-04T12:43:33.680Z,44.53
2023-05-04T12:46:00.429Z,45.91
2023-05-04T12:48:29.027Z,44.93
2023-05-04T12:50:56.097Z,43.16
2023-05-04T12:53:25.680Z,44.34
2023-05-04T12:55:52.815Z,42.63
2023-05-04T12:58:19.480Z,42.93
2023-05-04T13:00:46.481Z,42.13
2023-05-04T13:03:13.769Z,42.92
2023-05-04T13:05:40.441Z,42.83
2023-05-04T13:08:07.112Z,43.50
2023-05-04T13:10:33.663Z,43.30
2023-05-04T13:13:02.817Z,42.48
2023-05-04T13:15:29.753Z,42.86
2023-05-04T13:17:56.425Z,43.94
2023-05-04T13:20:22.972Z,47.41
2023-05-04T13:22:50.759Z,49.80
2023-05-04T13:25:17.437Z,52.26
2023-05-04T13:27:44.139Z,53.32
2023-05-04T13:30:11.972Z,53.44
2023-05-04T13:32:38.758Z,54.11
2023-05-04T13:35:06.159Z,54.26
2023-05-04T13:37:33.918Z,54.85
2023-05-04T13:40:01.672Z,54.80
2023-05-04T13:42:28.425Z,54.21
2023-05-04T13:44:55.087Z,53.90
2023-05-04T13:47:21.713Z,53.51
2023-05-04T13:49:49.174Z,53.87
2023-05-04T13:52:16.065Z,54.14
2023-05-04T13:54:42.756Z,54.72
2023-05-04T13:57:09.307Z,55.54
2023-05-04T13:59:35.861Z,55.70
2023-05-04T14:02:02.663Z,55.19
2023-05-04T14:04:30.248Z,54.78
2023-05-04T14:06:57.689Z,54.66
2023-05-04T14:09:25.937Z,54.27
2023-05-04T14:11:52.441Z,54.34
2023-05-04T14:14:19.436Z,54.34
2023-05-04T14:16:46.876Z,54.69
2023-05-04T14:19:13.478Z,54.79
2023-05-04T14:21:40.003Z,54.39
2023-05-04T14:24:06.573Z,55.19
2023-05-04T14:26:34.514Z,55.37
2023-05-04T14:29:01.156Z,55.18
2023-05-04T14:31:27.978Z,55.77
2023-05-04T14:33:56.744Z,55.84
2023-05-04T14:36:23.975Z,55.55
2023-05-04T14:38:50.523Z,54.73
2023-05-04T14:41:18.181Z,53.69
2023-05-04T14:43:47.818Z,53.53
2023-05-04T14:46:14.402Z,53.57
2023-05-04T14:48:41.261Z,53.39
2023-05-04T14:51:08.489Z,53.64
2023-05-04T14:53:37.043Z,53.82
2023-05-04T14:56:05.587Z,53.62
2023-05-04T14:58:32.148Z,53.25
2023-05-04T15:00:58.788Z,53.21
2023-05-04T15:03:26.036Z,53.33
2023-05-04T15:05:52.856Z,52.89
2023-05-04T15:08:19.502Z,52.84
2023-05-04T15:10:46.302Z,51.78
2023-05-04T15:13:15.972Z,50.83
2023-05-04T15:15:42.805Z,50.73
2023-05-04T15:18:10.427Z,50.89
2023-05-04T15:20:40.520Z,50.92
2023-05-04T15:23:13.070Z,50.81
2023-05-04T15:25:41.073Z,50.00
2023-05-04T15:28:12.001Z,51.89
2023-05-04T15:30:42.182Z,50.16
2023-05-04T15:33:09.101Z,50.06
2023-05-04T15:35:37.133Z,49.89
2023-05-04T15:38:04.048Z,50.12
2023-05-04T15:40:31.447Z,50.38
2023-05-04T15:42:58.015Z,50.58
2023-05-04T15:45:24.790Z,49.45
2023-05-04T15:47:56.394Z,48.82
2023-05-04T15:50:24.136Z,49.24
2023-05-04T15:52:50.693Z,49.16
2023-05-04T15:55:26.010Z,48.43
2023-05-04T15:57:54.040Z,48.56
2023-05-04T16:00:21.669Z,48.91
2023-05-04T16:02:48.588Z,48.66
2023-05-04T16:05:15.390Z,49.21
2023-05-04T16:07:42.144Z,49.31
2023-05-04T16:10:09.841Z,49.20
2023-05-04T16:12:36.855Z,48.69
2023-05-04T16:15:03.956Z,49.18
2023-05-04T16:17:34.991Z,48.58
2023-05-04T16:20:03.188Z,47.97
2023-05-04T16:22:30.323Z,48.28
2023-05-04T16:24:57.323Z,48.03
2023-05-04T16:27:26.680Z,47.79
2023-05-04T16:29:53.537Z,47.98
2023-05-04T16:32:20.619Z,47.96
2023-05-04T16:34:47.694Z,47.98
2023-05-04T16:37:14.353Z,47.96
2023-05-04T16:39:40.976Z,48.34
2023-05-04T16:42:07.573Z,48.55
2023-05-04T16:44:34.095Z,48.45
2023-05-04T16:47:00.807Z,48.31
2023-05-04T16:49:27.393Z,48.93
2023-05-04T16:51:55.265Z,48.55
2023-05-04T16:54:25.092Z,48.30
2023-05-04T16:56:52.327Z,48.32
2023-05-04T16:59:18.942Z,48.56
2023-05-04T17:01:46.195Z,48.61
2023-05-04T17:04:12.823Z,48.99
2023-05-04T17:06:39.429Z,49.11
2023-05-04T17:09:06.047Z,49.24
2023-05-04T17:11:32.651Z,49.50
2023-05-04T17:14:01.203Z,49.45
2023-05-04T17:16:27.903Z,49.86
2023-05-04T17:18:54.750Z,49.49
2023-05-04T17:21:21.352Z,49.42
2023-05-04T17:23:47.875Z,49.59
2023-05-04T17:26:14.430Z,50.33
2023-05-04T17:28:40.975Z,50.23
2023-05-04T17:31:11.462Z,50.03
2023-05-04T17:33:41.559Z,49.98
2023-05-04T17:36:11.149Z,49.97
2023-05-04T17:38:39.160Z,50.20
2023-05-04T17:41:06.054Z,50.29
2023-05-04T17:43:33.892Z,50.19
2023-05-04T17:46:00.549Z,50.20
2023-05-04T17:48:27.809Z,50.38
2023-05-04T17:50:54.388Z,50.21
2023-05-04T17:53:21.003Z,50.78
2023-05-04T17:55:47.760Z,50.73
2023-05-04T17:58:14.316Z,50.65
2023-05-04T18:00:40.933Z,50.69
2023-05-04T18:03:07.646Z,50.86
2023-05-04T18:05:34.285Z,50.91
2023-05-04T18:08:00.899Z,50.71
2023-05-04T18:10:27.555Z,51.37
2023-05-04T18:13:00.171Z,51.19
2023-05-04T18:15:26.959Z,51.29
2023-05-04T18:17:53.531Z,51.05
2023-05-04T18:20:20.363Z,51.30
2023-05-04T18:22:46.957Z,51.27
2023-05-04T18:25:15.320Z,51.07
2023-05-04T18:27:41.903Z,51.07
2023-05-04T18:30:09.536Z,51.22
2023-05-04T18:32:36.453Z,51.45
2023-05-04T18:35:03.414Z,51.24
2023-05-04T18:37:32.979Z,51.33
2023-05-04T18:39:59.662Z,51.48
2023-05-04T18:43:03.273Z,51.39
2023-05-04T18:48:39.020Z,51.87
2023-05-04T18:51:05.575Z,52.31
2023-05-04T18:53:32.132Z,52.67
2023-05-04T18:56:06.204Z,52.54
2023-05-04T18:58:33.152Z,52.38
2023-05-04T19:00:59.886Z,52.38
2023-05-04T19:03:26.804Z,52.88
2023-05-04T19:05:54.233Z,53.37
2023-05-04T19:08:21.589Z,53.49
2023-05-04T19:10:49.612Z,53.77
2023-05-04T19:13:17.055Z,53.93
2023-05-04T19:15:43.842Z,53.36
2023-05-04T19:18:10.663Z,53.46
2023-05-04T19:20:37.706Z,53.69
2023-05-04T19:23:04.475Z,53.95
2023-05-04T19:25:35.039Z,53.78
2023-05-04T19:28:08.274Z,53.64
2023-05-04T19:30:39.286Z,53.53
2023-05-04T19:33:06.877Z,54.54
2023-05-04T19:35:33.494Z,54.92
2023-05-04T19:38:01.749Z,55.30
2023-05-04T19:40:28.548Z,55.62
2023-05-04T19:42:55.215Z,55.86
2023-05-04T19:45:21.985Z,55.99
2023-05-04T19:47:50.300Z,56.22
2023-05-04T19:50:19.029Z,56.76
2023-05-04T19:52:45.657Z,57.15
2023-05-04T19:55:12.628Z,57.41
2023-05-04T19:57:39.284Z,57.57
2023-05-04T20:00:06.946Z,57.96
2023-05-04T20:02:35.030Z,58.30
2023-05-04T20:05:01.672Z,58.70
2023-05-04T20:07:28.261Z,58.55
2023-05-04T20:09:54.953Z,58.33
2023-05-04T20:12:26.619Z,58.81
2023-05-04T20:14:53.252Z,59.26
2023-05-04T20:17:19.813Z,59.10
2023-05-04T20:19:47.349Z,59.31
2023-05-04T20:33:14.854Z,60.68
2023-05-04T20:38:22.666Z,60.25
2023-05-04T20:40:50.466Z,60.10
2023-05-04T20:43:18.675Z,59.90
2023-05-04T20:45:45.347Z,59.97
2023-05-04T20:48:11.993Z,59.92
2023-05-04T20:50:40.021Z,59.92
2023-05-04T20:53:06.705Z,59.23
2023-05-04T20:55:33.302Z,58.82
2023-05-04T20:57:59.837Z,58.14
2023-05-04T21:00:28.476Z,58.14
2023-05-04T21:02:55.158Z,58.52
2023-05-04T21:05:21.847Z,58.64
2023-05-04T21:10:23.820Z,59.80
2023-05-04T21:12:50.435Z,59.92
2023-05-04T21:15:17.345Z,59.61
2023-05-04T21:17:43.952Z,59.83
2023-05-04T21:20:10.912Z,59.94
2023-05-04T21:23:40.488Z,59.93
2023-05-04T21:29:04.023Z,59.91
2023-05-04T21:47:51.645Z,60.20
2023-05-04T21:53:36.600Z,59.45
2023-05-04T21:56:08.466Z,59.67
2023-05-04T21:58:55.077Z,59.58
2023-05-04T22:01:21.768Z,57.34
2023-05-04T22:03:48.414Z,57.06
2023-05-04T22:06:15.445Z,56.77
2023-05-04T22:08:42.038Z,56.17
2023-05-04T22:11:28.354Z,54.34
2023-05-04T22:13:54.923Z,53.52
2023-05-04T22:16:21.597Z,51.40
2023-05-04T22:18:49.514Z,49.52
2023-05-04T22:22:05.787Z,49.22
2023-05-04T22:27:29.972Z,47.03
2023-05-04T22:29:57.445Z,46.69
2023-05-04T22:32:24.072Z,46.14
2023-05-04T22:34:50.598Z,46.01
2023-05-04T22:37:17.141Z,46.54
2023-05-04T22:39:43.702Z,46.59
2023-05-04T22:42:10.306Z,46.33
2023-05-04T22:44:36.884Z,45.95
2023-05-04T22:47:03.951Z,45.53
2023-05-04T22:49:30.518Z,45.73
2023-05-04T22:51:57.054Z,45.78
2023-05-04T22:57:19.571Z,46.23
2023-05-04T22:59:46.123Z,45.74
2023-05-04T23:02:14.498Z,45.58
2023-05-04T23:04:42.350Z,45.72
2023-05-04T23:07:09.232Z,45.75
2023-05-04T23:09:46.346Z,45.64
2023-05-04T23:12:37.928Z,45.57
2023-05-04T23:15:06.708Z,45.54
2023-05-04T23:17:34.293Z,45.62
2023-05-04T23:20:00.989Z,45.74
2023-05-04T23:22:27.891Z,45.68
2023-05-04T23:24:54.418Z,46.23
2023-05-04T23:27:20.964Z,46.10
2023-05-04T23:29:47.519Z,46.40
2023-05-04T23:32:14.041Z,45.72
2023-05-04T23:34:40.600Z,46.48
2023-05-04T23:37:07.337Z,46.47
2023-05-04T23:39:49.474Z,46.52
2023-05-04T23:42:41.031Z,46.40
2023-05-04T23:45:16.664Z,46.31
2023-05-04T23:47:45.384Z,46.42
2023-05-04T23:50:12.434Z,46.47
2023-05-04T23:52:39.313Z,46.53
2023-05-04T23:55:06.655Z,46.76
2023-05-04T23:57:33.307Z,47.03
2023-05-04T23:59:59.930Z,47.04
